sensor_id;sensor_type;location;lat;lon;timestamp;P1;durP1;ratioP1;P2;durP2;ratioP2
36457;SDS011;22480;50.546;12.292;2023-09-18T00:02:24;2.55;;;2.35;;
36457;SDS011;22480;50.546;12.292;2023-09-18T00:04:50;2.67;;;2.20;;
36457;SDS011;22480;50.546;12.292;2023-09-18T00:07:17;7.90;;;2.42;;
36457;SDS011;22480;50.546;12.292;2023-09-18T00:09:43;2.45;;;2.20;;
36457;SDS011;22480;50.546;12.292;2023-09-18T00:12:09;2.22;;;2.03;;
36457;SDS011;22480;50.546;12.292;2023-09-18T00:14:35;2.20;;;2.00;;
36457;SDS011;22480;50.546;12.292;2023-09-18T00:17:02;2.60;;;2.40;;
36457;SDS011;22480;50.546;12.292;2023-09-18T00:19:28;2.13;;;1.92;;
36457;SDS011;22480;50.546;12.292;2023-09-18T00:21:54;2.42;;;2.17;;
36457;SDS011;22480;50.546;12.292;2023-09-18T00:24:19;3.05;;;2.13;;
36457;SDS011;22480;50.546;12.292;2023-09-18T00:26:46;2.42;;;2.22;;
36457;SDS011;22480;50.546;12.292;2023-09-18T00:29:13;2.38;;;2.10;;
36457;SDS011;22480;50.546;12.292;2023-09-18T00:31:39;3.00;;;2.20;;
36457;SDS011;22480;50.546;12.292;2023-09-18T00:34:05;2.30;;;2.10;;
36457;SDS011;22480;50.546;12.292;2023-09-18T00:36:31;2.20;;;2.00;;
36457;SDS011;22480;50.546;12.292;2023-09-18T00:38:56;2.55;;;2.30;;
36457;SDS011;22480;50.546;12.292;2023-09-18T00:41:22;2.70;;;2.50;;
36457;SDS011;22480;50.546;12.292;2023-09-18T00:43:48;3.47;;;2.50;;
36457;SDS011;22480;50.546;12.292;2023-09-18T00:46:13;2.65;;;2.25;;
36457;SDS011;22480;50.546;12.292;2023-09-18T00:48:39;3.35;;;2.42;;
36457;SDS011;22480;50.546;12.292;2023-09-18T00:51:06;2.72;;;2.53;;
36457;SDS011;22480;50.546;12.292;2023-09-18T00:53:33;3.25;;;2.95;;
36457;SDS011;22480;50.546;12.292;2023-09-18T00:55:59;3.58;;;2.40;;
36457;SDS011;22480;50.546;12.292;2023-09-18T00:58:28;7.00;;;3.92;;
36457;SDS011;22480;50.546;12.292;2023-09-18T01:00:54;4.78;;;3.33;;
36457;SDS011;22480;50.546;12.292;2023-09-18T01:03:21;3.00;;;2.60;;
36457;SDS011;22480;50.546;12.292;2023-09-18T01:05:47;2.90;;;2.60;;
36457;SDS011;22480;50.546;12.292;2023-09-18T01:08:13;2.95;;;2.53;;
36457;SDS011;22480;50.546;12.292;2023-09-18T01:11:04;2.88;;;2.50;;
36457;SDS011;22480;50.546;12.292;2023-09-18T01:13:46;2.70;;;2.50;;
36457;SDS011;22480;50.546;12.292;2023-09-18T01:16:36;2.58;;;2.17;;
36457;SDS011;22480;50.546;12.292;2023-09-18T01:19:15;2.40;;;2.20;;
36457;SDS011;22480;50.546;12.292;2023-09-18T01:21:41;2.92;;;2.67;;
36457;SDS011;22480;50.546;12.292;2023-09-18T01:24:07;2.72;;;2.50;;
36457;SDS011;22480;50.546;12.292;2023-09-18T01:26:32;4.32;;;2.70;;
36457;SDS011;22480;50.546;12.292;2023-09-18T01:28:58;2.67;;;2.45;;
36457;SDS011;22480;50.546;12.292;2023-09-18T01:31:24;3.75;;;2.63;;
36457;SDS011;22480;50.546;12.292;2023-09-18T01:33:51;3.00;;;2.53;;
36457;SDS011;22480;50.546;12.292;2023-09-18T01:36:18;3.25;;;2.60;;
36457;SDS011;22480;50.546;12.292;2023-09-18T01:38:45;3.55;;;2.63;;
36457;SDS011;22480;50.546;12.292;2023-09-18T01:41:12;2.53;;;2.25;;
36457;SDS011;22480;50.546;12.292;2023-09-18T01:43:37;2.75;;;2.55;;
36457;SDS011;22480;50.546;12.292;2023-09-18T01:46:03;3.38;;;2.70;;
36457;SDS011;22480;50.546;12.292;2023-09-18T01:48:30;3.05;;;2.75;;
36457;SDS011;22480;50.546;12.292;2023-09-18T01:50:57;4.22;;;2.85;;
36457;SDS011;22480;50.546;12.292;2023-09-18T01:53:23;3.45;;;2.63;;
36457;SDS011;22480;50.546;12.292;2023-09-18T01:55:49;4.07;;;2.75;;
36457;SDS011;22480;50.546;12.292;2023-09-18T01:58:15;2.90;;;2.70;;
36457;SDS011;22480;50.546;12.292;2023-09-18T02:00:41;2.97;;;2.47;;
36457;SDS011;22480;50.546;12.292;2023-09-18T02:03:06;3.30;;;2.45;;
36457;SDS011;22480;50.546;12.292;2023-09-18T02:05:32;3.70;;;2.38;;
36457;SDS011;22480;50.546;12.292;2023-09-18T02:07:58;3.33;;;3.03;;
36457;SDS011;22480;50.546;12.292;2023-09-18T02:10:23;2.88;;;2.58;;
36457;SDS011;22480;50.546;12.292;2023-09-18T02:12:49;2.85;;;2.40;;
36457;SDS011;22480;50.546;12.292;2023-09-18T02:15:15;2.45;;;2.25;;
36457;SDS011;22480;50.546;12.292;2023-09-18T02:17:41;2.95;;;2.72;;
36457;SDS011;22480;50.546;12.292;2023-09-18T02:20:08;2.67;;;2.42;;
36457;SDS011;22480;50.546;12.292;2023-09-18T02:22:37;2.60;;;2.40;;
36457;SDS011;22480;50.546;12.292;2023-09-18T02:25:05;2.35;;;2.15;;
36457;SDS011;22480;50.546;12.292;2023-09-18T02:27:31;3.00;;;2.70;;
36457;SDS011;22480;50.546;12.292;2023-09-18T02:29:57;2.45;;;2.25;;
36457;SDS011;22480;50.546;12.292;2023-09-18T02:32:22;2.63;;;2.42;;
36457;SDS011;22480;50.546;12.292;2023-09-18T02:34:48;2.40;;;2.20;;
36457;SDS011;22480;50.546;12.292;2023-09-18T02:37:14;3.13;;;2.40;;
36457;SDS011;22480;50.546;12.292;2023-09-18T02:39:40;3.03;;;2.72;;
36457;SDS011;22480;50.546;12.292;2023-09-18T02:42:06;4.35;;;2.40;;
36457;SDS011;22480;50.546;12.292;2023-09-18T02:44:31;2.95;;;2.67;;
36457;SDS011;22480;50.546;12.292;2023-09-18T02:46:57;2.65;;;2.45;;
36457;SDS011;22480;50.546;12.292;2023-09-18T02:49:23;2.50;;;2.25;;
36457;SDS011;22480;50.546;12.292;2023-09-18T02:51:49;3.38;;;2.72;;
36457;SDS011;22480;50.546;12.292;2023-09-18T02:54:15;2.90;;;2.45;;
36457;SDS011;22480;50.546;12.292;2023-09-18T02:56:41;2.70;;;2.45;;
36457;SDS011;22480;50.546;12.292;2023-09-18T02:59:07;2.85;;;2.35;;
36457;SDS011;22480;50.546;12.292;2023-09-18T03:01:34;5.00;;;2.42;;
36457;SDS011;22480;50.546;12.292;2023-09-18T03:03:59;2.72;;;2.53;;
36457;SDS011;22480;50.546;12.292;2023-09-18T03:06:27;3.45;;;2.90;;
36457;SDS011;22480;50.546;12.292;2023-09-18T03:08:52;2.30;;;2.10;;
36457;SDS011;22480;50.546;12.292;2023-09-18T03:11:18;2.97;;;2.65;;
36457;SDS011;22480;50.546;12.292;2023-09-18T03:13:45;2.60;;;2.40;;
36457;SDS011;22480;50.546;12.292;2023-09-18T03:16:12;2.92;;;2.50;;
36457;SDS011;22480;50.546;12.292;2023-09-18T03:18:38;3.00;;;2.60;;
36457;SDS011;22480;50.546;12.292;2023-09-18T03:21:04;2.60;;;2.40;;
36457;SDS011;22480;50.546;12.292;2023-09-18T03:23:30;2.97;;;2.65;;
36457;SDS011;22480;50.546;12.292;2023-09-18T03:25:55;4.28;;;3.15;;
36457;SDS011;22480;50.546;12.292;2023-09-18T03:28:21;3.30;;;3.00;;
36457;SDS011;22480;50.546;12.292;2023-09-18T03:30:49;3.00;;;2.70;;
36457;SDS011;22480;50.546;12.292;2023-09-18T03:33:17;3.65;;;2.75;;
36457;SDS011;22480;50.546;12.292;2023-09-18T03:35:50;3.25;;;2.78;;
36457;SDS011;22480;50.546;12.292;2023-09-18T03:38:22;3.00;;;2.70;;
36457;SDS011;22480;50.546;12.292;2023-09-18T03:40:48;2.70;;;2.50;;
36457;SDS011;22480;50.546;12.292;2023-09-18T03:43:14;3.17;;;2.88;;
36457;SDS011;22480;50.546;12.292;2023-09-18T03:45:40;3.70;;;2.72;;
36457;SDS011;22480;50.546;12.292;2023-09-18T03:48:07;3.75;;;2.60;;
36457;SDS011;22480;50.546;12.292;2023-09-18T03:50:33;3.38;;;2.80;;
36457;SDS011;22480;50.546;12.292;2023-09-18T03:52:59;3.38;;;3.08;;
36457;SDS011;22480;50.546;12.292;2023-09-18T03:55:25;2.47;;;2.28;;
36457;SDS011;22480;50.546;12.292;2023-09-18T03:57:52;3.28;;;2.97;;
36457;SDS011;22480;50.546;12.292;2023-09-18T04:00:17;5.75;;;2.97;;
36457;SDS011;22480;50.546;12.292;2023-09-18T04:02:43;2.78;;;2.58;;
36457;SDS011;22480;50.546;12.292;2023-09-18T04:05:09;2.95;;;2.75;;
36457;SDS011;22480;50.546;12.292;2023-09-18T04:07:35;2.97;;;2.67;;
36457;SDS011;22480;50.546;12.292;2023-09-18T04:10:00;5.40;;;3.42;;
36457;SDS011;22480;50.546;12.292;2023-09-18T04:12:27;3.95;;;2.83;;
36457;SDS011;22480;50.546;12.292;2023-09-18T04:14:53;3.55;;;2.95;;
36457;SDS011;22480;50.546;12.292;2023-09-18T04:17:19;5.40;;;3.00;;
36457;SDS011;22480;50.546;12.292;2023-09-18T04:19:46;5.70;;;3.47;;
36457;SDS011;22480;50.546;12.292;2023-09-18T04:22:12;3.20;;;2.90;;
36457;SDS011;22480;50.546;12.292;2023-09-18T04:24:37;4.00;;;3.03;;
36457;SDS011;22480;50.546;12.292;2023-09-18T04:27:03;3.83;;;3.17;;
36457;SDS011;22480;50.546;12.292;2023-09-18T04:29:29;3.60;;;3.25;;
36457;SDS011;22480;50.546;12.292;2023-09-18T04:31:55;3.58;;;2.95;;
36457;SDS011;22480;50.546;12.292;2023-09-18T04:34:21;3.35;;;2.95;;
36457;SDS011;22480;50.546;12.292;2023-09-18T04:36:48;3.45;;;3.15;;
36457;SDS011;22480;50.546;12.292;2023-09-18T04:39:15;3.08;;;2.72;;
36457;SDS011;22480;50.546;12.292;2023-09-18T04:41:41;3.08;;;2.78;;
36457;SDS011;22480;50.546;12.292;2023-09-18T04:44:07;3.47;;;3.10;;
36457;SDS011;22480;50.546;12.292;2023-09-18T04:46:33;10.55;;;3.30;;
36457;SDS011;22480;50.546;12.292;2023-09-18T04:49:02;2.95;;;2.65;;
36457;SDS011;22480;50.546;12.292;2023-09-18T04:51:30;3.35;;;2.88;;
36457;SDS011;22480;50.546;12.292;2023-09-18T04:53:57;3.40;;;3.10;;
36457;SDS011;22480;50.546;12.292;2023-09-18T04:56:24;4.50;;;2.60;;
36457;SDS011;22480;50.546;12.292;2023-09-18T04:58:51;3.08;;;2.67;;
36457;SDS011;22480;50.546;12.292;2023-09-18T05:01:17;3.20;;;2.88;;
36457;SDS011;22480;50.546;12.292;2023-09-18T05:03:44;2.78;;;2.22;;
36457;SDS011;22480;50.546;12.292;2023-09-18T05:06:10;6.47;;;2.85;;
36457;SDS011;22480;50.546;12.292;2023-09-18T05:08:35;2.97;;;2.78;;
36457;SDS011;22480;50.546;12.292;2023-09-18T05:11:01;2.92;;;2.70;;
36457;SDS011;22480;50.546;12.292;2023-09-18T05:13:27;3.60;;;3.00;;
36457;SDS011;22480;50.546;12.292;2023-09-18T05:15:53;3.33;;;3.03;;
36457;SDS011;22480;50.546;12.292;2023-09-18T05:18:18;3.40;;;2.50;;
36457;SDS011;22480;50.546;12.292;2023-09-18T05:20:44;3.75;;;2.78;;
36457;SDS011;22480;50.546;12.292;2023-09-18T05:23:10;2.70;;;2.50;;
36457;SDS011;22480;50.546;12.292;2023-09-18T05:25:36;3.60;;;2.75;;
36457;SDS011;22480;50.546;12.292;2023-09-18T05:28:03;2.90;;;2.60;;
36457;SDS011;22480;50.546;12.292;2023-09-18T05:30:31;3.80;;;2.50;;
36457;SDS011;22480;50.546;12.292;2023-09-18T05:33:00;4.38;;;2.30;;
36457;SDS011;22480;50.546;12.292;2023-09-18T05:35:30;3.13;;;2.80;;
36457;SDS011;22480;50.546;12.292;2023-09-18T05:38:02;5.85;;;3.30;;
36457;SDS011;22480;50.546;12.292;2023-09-18T05:40:28;4.07;;;2.60;;
36457;SDS011;22480;50.546;12.292;2023-09-18T05:42:55;2.97;;;2.20;;
36457;SDS011;22480;50.546;12.292;2023-09-18T05:45:21;3.13;;;2.88;;
36457;SDS011;22480;50.546;12.292;2023-09-18T05:47:47;3.15;;;2.88;;
36457;SDS011;22480;50.546;12.292;2023-09-18T05:50:14;3.17;;;2.50;;
36457;SDS011;22480;50.546;12.292;2023-09-18T05:52:42;4.13;;;2.50;;
36457;SDS011;22480;50.546;12.292;2023-09-18T05:55:09;3.35;;;2.17;;
36457;SDS011;22480;50.546;12.292;2023-09-18T05:57:35;3.10;;;2.20;;
36457;SDS011;22480;50.546;12.292;2023-09-18T06:00:02;2.38;;;2.15;;
36457;SDS011;22480;50.546;12.292;2023-09-18T06:02:37;2.53;;;2.30;;
36457;SDS011;22480;50.546;12.292;2023-09-18T06:05:02;2.75;;;2.42;;
36457;SDS011;22480;50.546;12.292;2023-09-18T06:07:29;5.47;;;2.17;;
36457;SDS011;22480;50.546;12.292;2023-09-18T06:09:56;2.13;;;1.92;;
36457;SDS011;22480;50.546;12.292;2023-09-18T06:12:22;3.10;;;2.03;;
36457;SDS011;22480;50.546;12.292;2023-09-18T06:14:48;2.20;;;2.00;;
36457;SDS011;22480;50.546;12.292;2023-09-18T06:17:14;2.88;;;1.95;;
36457;SDS011;22480;50.546;12.292;2023-09-18T06:19:41;2.00;;;1.80;;
36457;SDS011;22480;50.546;12.292;2023-09-18T06:22:08;2.35;;;2.15;;
36457;SDS011;22480;50.546;12.292;2023-09-18T06:24:34;1.98;;;1.77;;
36457;SDS011;22480;50.546;12.292;2023-09-18T06:27:00;1.80;;;1.70;;
36457;SDS011;22480;50.546;12.292;2023-09-18T06:29:26;1.95;;;1.80;;
36457;SDS011;22480;50.546;12.292;2023-09-18T06:31:52;2.40;;;1.90;;
36457;SDS011;22480;50.546;12.292;2023-09-18T06:34:17;1.90;;;1.80;;
36457;SDS011;22480;50.546;12.292;2023-09-18T06:36:43;3.10;;;1.75;;
36457;SDS011;22480;50.546;12.292;2023-09-18T06:39:09;1.92;;;1.83;;
36457;SDS011;22480;50.546;12.292;2023-09-18T06:41:34;3.25;;;1.90;;
36457;SDS011;22480;50.546;12.292;2023-09-18T06:44:00;3.63;;;2.10;;
36457;SDS011;22480;50.546;12.292;2023-09-18T06:46:31;2.10;;;1.70;;
36457;SDS011;22480;50.546;12.292;2023-09-18T06:48:57;2.25;;;2.05;;
36457;SDS011;22480;50.546;12.292;2023-09-18T06:51:28;2.28;;;2.08;;
36457;SDS011;22480;50.546;12.292;2023-09-18T06:53:54;3.05;;;1.60;;
36457;SDS011;22480;50.546;12.292;2023-09-18T06:56:22;2.17;;;1.88;;
36457;SDS011;22480;50.546;12.292;2023-09-18T06:58:49;2.13;;;1.90;;
36457;SDS011;22480;50.546;12.292;2023-09-18T07:01:17;3.65;;;2.10;;
36457;SDS011;22480;50.546;12.292;2023-09-18T07:03:46;2.95;;;1.88;;
36457;SDS011;22480;50.546;12.292;2023-09-18T07:06:13;2.58;;;1.85;;
36457;SDS011;22480;50.546;12.292;2023-09-18T07:08:42;4.00;;;2.13;;
36457;SDS011;22480;50.546;12.292;2023-09-18T07:11:08;2.63;;;2.40;;
36457;SDS011;22480;50.546;12.292;2023-09-18T07:13:34;3.03;;;2.38;;
36457;SDS011;22480;50.546;12.292;2023-09-18T07:16:00;2.40;;;2.20;;
36457;SDS011;22480;50.546;12.292;2023-09-18T07:18:26;2.60;;;2.35;;
36457;SDS011;22480;50.546;12.292;2023-09-18T07:20:51;2.92;;;2.47;;
36457;SDS011;22480;50.546;12.292;2023-09-18T07:23:17;2.50;;;2.28;;
36457;SDS011;22480;50.546;12.292;2023-09-18T07:25:43;4.43;;;2.60;;
36457;SDS011;22480;50.546;12.292;2023-09-18T07:28:09;2.42;;;2.22;;
36457;SDS011;22480;50.546;12.292;2023-09-18T07:30:41;3.58;;;2.90;;
36457;SDS011;22480;50.546;12.292;2023-09-18T07:33:07;5.25;;;2.75;;
36457;SDS011;22480;50.546;12.292;2023-09-18T07:35:32;4.18;;;2.83;;
36457;SDS011;22480;50.546;12.292;2023-09-18T07:37:58;3.30;;;3.00;;
36457;SDS011;22480;50.546;12.292;2023-09-18T07:40:24;2.95;;;2.65;;
36457;SDS011;22480;50.546;12.292;2023-09-18T07:42:49;7.30;;;2.80;;
36457;SDS011;22480;50.546;12.292;2023-09-18T07:45:15;5.57;;;3.35;;
36457;SDS011;22480;50.546;12.292;2023-09-18T07:47:41;3.28;;;2.97;;
36457;SDS011;22480;50.546;12.292;2023-09-18T07:50:07;3.28;;;2.88;;
36457;SDS011;22480;50.546;12.292;2023-09-18T07:52:32;4.05;;;2.70;;
36457;SDS011;22480;50.546;12.292;2023-09-18T07:54:58;3.83;;;2.60;;
36457;SDS011;22480;50.546;12.292;2023-09-18T07:57:25;4.22;;;2.40;;
36457;SDS011;22480;50.546;12.292;2023-09-18T07:59:53;2.60;;;2.40;;
36457;SDS011;22480;50.546;12.292;2023-09-18T08:02:19;2.58;;;2.38;;
36457;SDS011;22480;50.546;12.292;2023-09-18T08:04:44;3.20;;;2.30;;
36457;SDS011;22480;50.546;12.292;2023-09-18T08:07:10;2.33;;;2.13;;
36457;SDS011;22480;50.546;12.292;2023-09-18T08:09:37;2.35;;;2.15;;
36457;SDS011;22480;50.546;12.292;2023-09-18T08:12:04;3.25;;;2.55;;
36457;SDS011;22480;50.546;12.292;2023-09-18T08:14:31;2.90;;;2.60;;
36457;SDS011;22480;50.546;12.292;2023-09-18T08:16:57;3.13;;;2.30;;
36457;SDS011;22480;50.546;12.292;2023-09-18T08:19:24;2.47;;;2.28;;
36457;SDS011;22480;50.546;12.292;2023-09-18T08:21:52;5.25;;;2.40;;
36457;SDS011;22480;50.546;12.292;2023-09-18T08:24:19;2.40;;;2.20;;
36457;SDS011;22480;50.546;12.292;2023-09-18T08:26:46;5.15;;;2.35;;
36457;SDS011;22480;50.546;12.292;2023-09-18T08:29:12;2.38;;;2.17;;
36457;SDS011;22480;50.546;12.292;2023-09-18T08:31:38;3.40;;;2.42;;
36457;SDS011;22480;50.546;12.292;2023-09-18T08:34:04;2.53;;;2.28;;
36457;SDS011;22480;50.546;12.292;2023-09-18T08:36:29;4.15;;;2.28;;
36457;SDS011;22480;50.546;12.292;2023-09-18T08:38:57;2.60;;;2.40;;
36457;SDS011;22480;50.546;12.292;2023-09-18T08:41:23;2.20;;;2.00;;
36457;SDS011;22480;50.546;12.292;2023-09-18T08:43:52;2.33;;;2.13;;
36457;SDS011;22480;50.546;12.292;2023-09-18T08:46:25;2.40;;;2.20;;
36457;SDS011;22480;50.546;12.292;2023-09-18T08:48:51;2.65;;;2.45;;
36457;SDS011;22480;50.546;12.292;2023-09-18T08:51:18;3.33;;;2.38;;
36457;SDS011;22480;50.546;12.292;2023-09-18T08:53:44;2.30;;;2.10;;
36457;SDS011;22480;50.546;12.292;2023-09-18T08:56:11;5.30;;;2.47;;
36457;SDS011;22480;50.546;12.292;2023-09-18T08:58:38;4.72;;;2.72;;
36457;SDS011;22480;50.546;12.292;2023-09-18T09:01:08;5.18;;;2.65;;
36457;SDS011;22480;50.546;12.292;2023-09-18T09:06:04;4.55;;;2.22;;
36457;SDS011;22480;50.546;12.292;2023-09-18T09:08:34;3.83;;;2.53;;
36457;SDS011;22480;50.546;12.292;2023-09-18T09:11:00;2.58;;;2.20;;
36457;SDS011;22480;50.546;12.292;2023-09-18T09:13:26;2.97;;;2.67;;
36457;SDS011;22480;50.546;12.292;2023-09-18T09:15:53;3.58;;;2.67;;
36457;SDS011;22480;50.546;12.292;2023-09-18T09:18:21;3.78;;;2.50;;
36457;SDS011;22480;50.546;12.292;2023-09-18T09:21:01;2.83;;;2.50;;
36457;SDS011;22480;50.546;12.292;2023-09-18T09:23:42;3.95;;;2.70;;
36457;SDS011;22480;50.546;12.292;2023-09-18T09:26:14;3.22;;;2.63;;
36457;SDS011;22480;50.546;12.292;2023-09-18T09:28:42;3.05;;;2.20;;
36457;SDS011;22480;50.546;12.292;2023-09-18T09:31:09;4.20;;;2.58;;
36457;SDS011;22480;50.546;12.292;2023-09-18T09:33:36;4.20;;;2.80;;
36457;SDS011;22480;50.546;12.292;2023-09-18T09:36:04;3.63;;;2.78;;
36457;SDS011;22480;50.546;12.292;2023-09-18T09:38:31;2.50;;;2.30;;
36457;SDS011;22480;50.546;12.292;2023-09-18T09:40:59;3.10;;;2.25;;
36457;SDS011;22480;50.546;12.292;2023-09-18T09:43:32;5.85;;;2.30;;
36457;SDS011;22480;50.546;12.292;2023-09-18T09:46:01;3.17;;;2.40;;
36457;SDS011;22480;50.546;12.292;2023-09-18T09:48:28;2.53;;;2.20;;
36457;SDS011;22480;50.546;12.292;2023-09-18T09:50:57;3.20;;;2.38;;
36457;SDS011;22480;50.546;12.292;2023-09-18T09:53:41;2.47;;;2.10;;
36457;SDS011;22480;50.546;12.292;2023-09-18T09:56:12;3.05;;;2.30;;
36457;SDS011;22480;50.546;12.292;2023-09-18T09:58:38;7.38;;;2.40;;
36457;SDS011;22480;50.546;12.292;2023-09-18T10:01:06;8.48;;;2.50;;
36457;SDS011;22480;50.546;12.292;2023-09-18T10:03:36;8.68;;;3.10;;
36457;SDS011;22480;50.546;12.292;2023-09-18T10:06:05;7.88;;;2.72;;
36457;SDS011;22480;50.546;12.292;2023-09-18T10:08:31;8.63;;;3.45;;
36457;SDS011;22480;50.546;12.292;2023-09-18T10:11:01;6.70;;;2.42;;
36457;SDS011;22480;50.546;12.292;2023-09-18T10:16:41;8.68;;;2.45;;
36457;SDS011;22480;50.546;12.292;2023-09-18T10:22:13;8.07;;;2.72;;
36457;SDS011;22480;50.546;12.292;2023-09-18T10:24:59;7.10;;;2.30;;
36457;SDS011;22480;50.546;12.292;2023-09-18T10:27:42;10.82;;;3.08;;
36457;SDS011;22480;50.546;12.292;2023-09-18T10:30:18;8.18;;;2.70;;
36457;SDS011;22480;50.546;12.292;2023-09-18T10:32:48;9.43;;;2.90;;
36457;SDS011;22480;50.546;12.292;2023-09-18T10:35:15;7.00;;;2.72;;
36457;SDS011;22480;50.546;12.292;2023-09-18T10:37:42;6.93;;;2.67;;
36457;SDS011;22480;50.546;12.292;2023-09-18T10:40:11;6.47;;;2.93;;
36457;SDS011;22480;50.546;12.292;2023-09-18T10:42:38;5.45;;;2.35;;
36457;SDS011;22480;50.546;12.292;2023-09-18T10:45:05;10.65;;;3.03;;
36457;SDS011;22480;50.546;12.292;2023-09-18T10:47:37;5.85;;;2.75;;
36457;SDS011;22480;50.546;12.292;2023-09-18T10:50:10;8.30;;;2.15;;
36457;SDS011;22480;50.546;12.292;2023-09-18T10:52:43;7.22;;;2.58;;
36457;SDS011;22480;50.546;12.292;2023-09-18T10:55:11;5.45;;;2.10;;
36457;SDS011;22480;50.546;12.292;2023-09-18T10:57:49;7.75;;;2.53;;
36457;SDS011;22480;50.546;12.292;2023-09-18T11:00:18;3.20;;;1.90;;
36457;SDS011;22480;50.546;12.292;2023-09-18T11:03:08;11.18;;;2.63;;
36457;SDS011;22480;50.546;12.292;2023-09-18T11:05:44;9.15;;;2.00;;
36457;SDS011;22480;50.546;12.292;2023-09-18T11:08:24;6.28;;;1.85;;
36457;SDS011;22480;50.546;12.292;2023-09-18T11:10:54;5.03;;;2.30;;
36457;SDS011;22480;50.546;12.292;2023-09-18T11:13:29;5.65;;;2.15;;
36457;SDS011;22480;50.546;12.292;2023-09-18T11:16:02;6.55;;;2.03;;
36457;SDS011;22480;50.546;12.292;2023-09-18T11:18:50;6.38;;;2.80;;
36457;SDS011;22480;50.546;12.292;2023-09-18T11:21:17;6.25;;;2.05;;
36457;SDS011;22480;50.546;12.292;2023-09-18T11:23:48;7.15;;;1.90;;
36457;SDS011;22480;50.546;12.292;2023-09-18T11:26:46;5.28;;;1.42;;
36457;SDS011;22480;50.546;12.292;2023-09-18T11:29:15;4.22;;;1.60;;
36457;SDS011;22480;50.546;12.292;2023-09-18T11:31:47;6.65;;;1.40;;
36457;SDS011;22480;50.546;12.292;2023-09-18T11:39:11;7.70;;;2.42;;
36457;SDS011;22480;50.546;12.292;2023-09-18T11:41:38;6.07;;;1.65;;
36457;SDS011;22480;50.546;12.292;2023-09-18T11:46:39;6.80;;;1.67;;
36457;SDS011;22480;50.546;12.292;2023-09-18T11:49:10;4.72;;;1.80;;
36457;SDS011;22480;50.546;12.292;2023-09-18T11:51:37;3.33;;;1.60;;
36457;SDS011;22480;50.546;12.292;2023-09-18T11:54:03;6.68;;;1.95;;
36457;SDS011;22480;50.546;12.292;2023-09-18T11:56:35;9.95;;;2.40;;
36457;SDS011;22480;50.546;12.292;2023-09-18T11:59:01;4.68;;;1.40;;
36457;SDS011;22480;50.546;12.292;2023-09-18T12:01:30;3.07;;;1.30;;
36457;SDS011;22480;50.546;12.292;2023-09-18T12:04:02;8.85;;;2.05;;
36457;SDS011;22480;50.546;12.292;2023-09-18T12:06:38;3.22;;;1.60;;
36457;SDS011;22480;50.546;12.292;2023-09-18T12:09:05;6.43;;;1.52;;
36457;SDS011;22480;50.546;12.292;2023-09-18T12:11:32;9.13;;;1.80;;
36457;SDS011;22480;50.546;12.292;2023-09-18T12:14:04;5.03;;;1.38;;
36457;SDS011;22480;50.546;12.292;2023-09-18T12:16:30;5.00;;;1.23;;
36457;SDS011;22480;50.546;12.292;2023-09-18T12:18:56;3.92;;;1.90;;
36457;SDS011;22480;50.546;12.292;2023-09-18T12:21:24;5.32;;;1.30;;
36457;SDS011;22480;50.546;12.292;2023-09-18T12:23:49;3.83;;;1.30;;
36457;SDS011;22480;50.546;12.292;2023-09-18T12:26:16;4.43;;;1.42;;
36457;SDS011;22480;50.546;12.292;2023-09-18T12:28:45;5.53;;;1.27;;
36457;SDS011;22480;50.546;12.292;2023-09-18T12:31:14;5.18;;;1.63;;
36457;SDS011;22480;50.546;12.292;2023-09-18T12:33:41;5.60;;;1.50;;
36457;SDS011;22480;50.546;12.292;2023-09-18T12:36:12;4.00;;;1.60;;
36457;SDS011;22480;50.546;12.292;2023-09-18T12:38:44;6.20;;;1.30;;
36457;SDS011;22480;50.546;12.292;2023-09-18T12:41:20;5.18;;;1.35;;
36457;SDS011;22480;50.546;12.292;2023-09-18T12:43:46;3.90;;;1.80;;
36457;SDS011;22480;50.546;12.292;2023-09-18T12:46:12;4.40;;;1.42;;
36457;SDS011;22480;50.546;12.292;2023-09-18T12:48:38;5.78;;;1.67;;
36457;SDS011;22480;50.546;12.292;2023-09-18T12:51:11;3.55;;;1.73;;
36457;SDS011;22480;50.546;12.292;2023-09-18T12:53:37;2.30;;;1.63;;
36457;SDS011;22480;50.546;12.292;2023-09-18T12:58:35;5.00;;;2.00;;
36457;SDS011;22480;50.546;12.292;2023-09-18T13:01:05;4.68;;;1.55;;
36457;SDS011;22480;50.546;12.292;2023-09-18T13:03:35;1.80;;;0.98;;
36457;SDS011;22480;50.546;12.292;2023-09-18T13:06:11;3.55;;;1.48;;
36457;SDS011;22480;50.546;12.292;2023-09-18T13:08:45;3.33;;;1.45;;
36457;SDS011;22480;50.546;12.292;2023-09-18T13:11:12;4.03;;;1.30;;
36457;SDS011;22480;50.546;12.292;2023-09-18T13:13:40;2.88;;;1.42;;
36457;SDS011;22480;50.546;12.292;2023-09-18T13:16:09;4.05;;;1.73;;
36457;SDS011;22480;50.546;12.292;2023-09-18T13:18:35;2.47;;;1.27;;
36457;SDS011;22480;50.546;12.292;2023-09-18T13:21:11;5.03;;;1.40;;
36457;SDS011;22480;50.546;12.292;2023-09-18T13:23:39;5.97;;;1.40;;
36457;SDS011;22480;50.546;12.292;2023-09-18T13:26:05;5.10;;;1.58;;
36457;SDS011;22480;50.546;12.292;2023-09-18T13:28:33;4.07;;;1.40;;
36457;SDS011;22480;50.546;12.292;2023-09-18T13:31:01;5.53;;;1.73;;
36457;SDS011;22480;50.546;12.292;2023-09-18T13:33:30;4.68;;;1.63;;
36457;SDS011;22480;50.546;12.292;2023-09-18T13:35:57;4.60;;;1.63;;
36457;SDS011;22480;50.546;12.292;2023-09-18T13:38:24;5.90;;;1.48;;
36457;SDS011;22480;50.546;12.292;2023-09-18T13:40:51;6.47;;;1.52;;
36457;SDS011;22480;50.546;12.292;2023-09-18T13:43:18;2.97;;;1.50;;
36457;SDS011;22480;50.546;12.292;2023-09-18T13:45:47;6.07;;;1.60;;
36457;SDS011;22480;50.546;12.292;2023-09-18T13:48:13;7.07;;;1.77;;
36457;SDS011;22480;50.546;12.292;2023-09-18T13:50:41;4.18;;;2.10;;
36457;SDS011;22480;50.546;12.292;2023-09-18T13:53:06;5.05;;;1.83;;
36457;SDS011;22480;50.546;12.292;2023-09-18T13:55:33;4.72;;;2.45;;
36457;SDS011;22480;50.546;12.292;2023-09-18T13:57:59;5.43;;;2.28;;
36457;SDS011;22480;50.546;12.292;2023-09-18T14:00:28;3.58;;;1.65;;
36457;SDS011;22480;50.546;12.292;2023-09-18T14:02:54;7.20;;;2.38;;
36457;SDS011;22480;50.546;12.292;2023-09-18T14:05:19;6.43;;;1.80;;
36457;SDS011;22480;50.546;12.292;2023-09-18T14:07:45;5.25;;;1.58;;
36457;SDS011;22480;50.546;12.292;2023-09-18T14:10:12;6.50;;;1.83;;
36457;SDS011;22480;50.546;12.292;2023-09-18T14:12:39;5.10;;;1.55;;
36457;SDS011;22480;50.546;12.292;2023-09-18T14:15:09;7.03;;;2.33;;
36457;SDS011;22480;50.546;12.292;2023-09-18T14:17:35;4.50;;;1.40;;
36457;SDS011;22480;50.546;12.292;2023-09-18T14:20:02;5.80;;;1.85;;
36457;SDS011;22480;50.546;12.292;2023-09-18T14:22:32;6.10;;;1.95;;
36457;SDS011;22480;50.546;12.292;2023-09-18T14:25:00;7.05;;;1.95;;
36457;SDS011;22480;50.546;12.292;2023-09-18T14:27:34;5.97;;;1.90;;
36457;SDS011;22480;50.546;12.292;2023-09-18T14:30:00;5.43;;;1.93;;
36457;SDS011;22480;50.546;12.292;2023-09-18T14:32:31;7.30;;;2.10;;
36457;SDS011;22480;50.546;12.292;2023-09-18T14:34:57;4.00;;;1.50;;
36457;SDS011;22480;50.546;12.292;2023-09-18T14:37:26;5.55;;;1.75;;
36457;SDS011;22480;50.546;12.292;2023-09-18T14:39:52;9.23;;;2.35;;
36457;SDS011;22480;50.546;12.292;2023-09-18T14:42:17;9.63;;;3.25;;
36457;SDS011;22480;50.546;12.292;2023-09-18T14:44:43;8.02;;;2.38;;
36457;SDS011;22480;50.546;12.292;2023-09-18T14:47:12;2.97;;;1.80;;
36457;SDS011;22480;50.546;12.292;2023-09-18T14:49:38;5.00;;;2.25;;
36457;SDS011;22480;50.546;12.292;2023-09-18T14:52:05;8.98;;;2.20;;
36457;SDS011;22480;50.546;12.292;2023-09-18T14:54:31;6.25;;;2.53;;
36457;SDS011;22480;50.546;12.292;2023-09-18T14:56:56;4.03;;;1.83;;